createdAt,value
2022-09-23T00:01:17.051Z,1001.71
2022-09-23T00:07:00.870Z,1001.7
2022-09-23T00:12:44.475Z,1001.62
2022-09-23T00:18:27.956Z,1001.62
2022-09-23T00:24:11.074Z,1001.69
2022-09-23T00:29:54.469Z,1001.61
2022-09-23T00:35:37.605Z,1001.57
2022-09-23T00:41:21.060Z,1001.51
2022-09-23T00:47:05.282Z,1001.43
2022-09-23T00:52:49.578Z,1001.5
2022-09-23T00:58:34.684Z,1001.52
2022-09-23T01:04:17.935Z,1001.46
2022-09-23T01:10:01.519Z,1001.46
2022-09-23T01:15:47.971Z,1001.46
2022-09-23T01:21:38.277Z,1001.45
2022-09-23T01:27:28.327Z,1001.41
2022-09-23T01:33:15.222Z,1001.37
2022-09-23T01:39:01.692Z,1001.34
2022-09-23T01:44:47.074Z,1001.3
2022-09-23T01:50:32.710Z,1001.2
2022-09-23T01:56:18.475Z,1001.2
2022-09-23T02:02:04.632Z,1001.37
2022-09-23T02:07:51.486Z,1001.36
2022-09-23T02:13:38.078Z,1001.28
2022-09-23T02:19:26.290Z,1000.99
2022-09-23T02:25:10.627Z,1001.01
2022-09-23T02:30:59.248Z,1000.9
2022-09-23T02:36:46.566Z,1000.88
2022-09-23T02:42:33.545Z,1000.85
2022-09-23T02:48:21.626Z,1000.87
2022-09-23T02:54:05.936Z,1000.8
2022-09-23T02:59:49.319Z,1000.92
2022-09-23T03:05:36.126Z,1000.78
2022-09-23T03:11:19.578Z,1000.87
2022-09-23T03:17:04.971Z,1000.8
2022-09-23T03:22:50.571Z,1000.88
2022-09-23T03:28:36.318Z,1000.84
2022-09-23T03:34:23.346Z,1000.89
2022-09-23T03:40:09.995Z,1000.85
2022-09-23T03:45:53.953Z,1000.76
2022-09-23T03:51:39.503Z,1000.66
2022-09-23T03:57:26.986Z,1000.6
2022-09-23T04:03:12.727Z,1000.58
2022-09-23T04:08:57.116Z,1000.62
2022-09-23T04:14:40.205Z,1000.64
2022-09-23T04:20:23.510Z,1000.65
2022-09-23T04:26:07.195Z,1000.65
2022-09-23T04:31:50.925Z,1000.6
2022-09-23T04:37:34.469Z,1000.58
2022-09-23T04:43:17.918Z,1000.46
2022-09-23T04:49:01.306Z,1000.5
2022-09-23T04:54:44.982Z,1000.45
2022-09-23T05:00:28.483Z,1000.46
2022-09-23T05:06:13.715Z,1000.52
2022-09-23T05:11:56.798Z,1000.59
2022-09-23T05:17:39.910Z,1000.55
2022-09-23T05:23:23.938Z,1000.55
2022-09-23T05:29:07.300Z,1000.58
2022-09-23T05:34:50.618Z,1000.53
2022-09-23T05:40:34.023Z,1000.56
2022-09-23T05:46:18.593Z,1000.61
2022-09-23T05:52:02.726Z,1000.6
2022-09-23T05:57:46.095Z,1000.64
2022-09-23T06:03:29.430Z,1000.57
2022-09-23T06:09:13.809Z,1000.59
2022-09-23T06:14:57.051Z,1000.61
2022-09-23T06:20:40.256Z,1000.66
2022-09-23T06:26:23.707Z,1000.64
2022-09-23T06:32:07.103Z,1000.66
2022-09-23T06:37:50.750Z,1000.56
2022-09-23T06:43:33.941Z,1000.55
2022-09-23T06:49:17.147Z,1000.51
2022-09-23T06:55:00.437Z,1000.5
2022-09-23T07:00:43.588Z,1000.49
2022-09-23T07:06:26.967Z,1000.51
2022-09-23T07:12:10.243Z,1000.5
2022-09-23T07:17:53.454Z,1000.55
2022-09-23T07:23:36.673Z,1000.61
2022-09-23T07:29:20.269Z,1000.58
2022-09-23T07:35:03.410Z,1000.59
2022-09-23T07:40:46.945Z,1000.62
2022-09-23T07:46:31.797Z,1000.53
2022-09-23T07:52:15.288Z,1000.57
2022-09-23T07:57:58.501Z,1000.64
2022-09-23T08:03:41.690Z,1000.65
2022-09-23T08:09:25.541Z,1000.7
2022-09-23T08:15:09.709Z,1000.68
2022-09-23T08:20:53.070Z,1000.68
2022-09-23T08:26:36.607Z,1000.73
2022-09-23T08:32:19.874Z,1000.65
2022-09-23T08:38:03.703Z,1000.66
2022-09-23T08:43:50.303Z,1000.71
2022-09-23T08:49:36.396Z,1000.74
2022-09-23T08:55:19.999Z,1000.8
2022-09-23T09:01:08.462Z,1000.84
2022-09-23T09:07:07.652Z,1000.77
2022-09-23T09:13:01.450Z,1000.68
2022-09-23T09:18:49.566Z,1000.67
2022-09-23T09:24:34.660Z,1000.61
2022-09-23T09:30:19.353Z,1000.61
2022-09-23T09:36:07.644Z,1000.51
2022-09-23T09:41:51.930Z,1000.43
2022-09-23T09:47:40.694Z,1000.48
2022-09-23T09:53:26.235Z,1000.4
2022-09-23T09:59:11.994Z,1000.37
2022-09-23T10:05:00.302Z,1000.39
2022-09-23T10:10:48.414Z,1000.41
2022-09-23T10:16:33.071Z,1000.48
2022-09-23T10:22:21.160Z,1000.48
2022-09-23T10:28:09.461Z,1000.48
2022-09-23T10:33:53.603Z,1000.52
2022-09-23T10:39:36.981Z,1000.54
2022-09-23T10:45:26.322Z,1000.56
2022-09-23T10:51:14.127Z,1000.51
2022-09-23T10:57:02.450Z,1000.53
2022-09-23T11:02:53.937Z,1000.47
2022-09-23T11:08:44.097Z,1000.45
2022-09-23T11:14:33.679Z,1000.47
2022-09-23T11:20:27.515Z,1000.35
2022-09-23T11:26:18.049Z,1000.35
2022-09-23T11:32:08.476Z,1000.23
2022-09-23T11:37:56.536Z,1000.16
2022-09-23T11:43:41.719Z,1000.24
2022-09-23T11:49:27.254Z,1000.19
2022-09-23T11:55:22.880Z,1000.23
2022-09-23T12:01:10.150Z,1000.14
2022-09-23T12:07:04.720Z,1000.06
2022-09-23T12:12:52.088Z,1000.07
2022-09-23T12:18:42.511Z,999.92
2022-09-23T12:24:36.911Z,999.89
2022-09-23T12:30:22.685Z,999.88
2022-09-23T12:36:09.725Z,999.9
2022-09-23T12:41:56.976Z,999.77
2022-09-23T12:47:42.675Z,999.76
2022-09-23T12:53:45.687Z,999.67
2022-09-23T12:59:30.160Z,999.67
2022-09-23T13:05:19.603Z,999.61
2022-09-23T13:11:06.590Z,999.54
2022-09-23T13:16:50.340Z,999.5
2022-09-23T13:22:51.371Z,999.33
2022-09-23T13:28:42.510Z,999.42
2022-09-23T13:34:29.532Z,999.42
2022-09-23T13:40:18.086Z,999.38
2022-09-23T13:46:03.165Z,999.34
2022-09-23T13:51:46.559Z,999.33
2022-09-23T13:57:30.725Z,999.31
2022-09-23T14:03:24.700Z,999.21
2022-09-23T14:09:08.090Z,999.14
2022-09-23T14:14:53.096Z,999.16
2022-09-23T14:20:41.253Z,999.09
2022-09-23T14:26:24.808Z,999.12
2022-09-23T14:32:12.254Z,999.09
2022-09-23T14:37:56.972Z,999.14
2022-09-23T14:43:40.385Z,999.06
2022-09-23T14:49:24.247Z,998.89
2022-09-23T14:55:15.974Z,998.83
2022-09-23T15:01:00.674Z,998.77
2022-09-23T15:06:46.355Z,998.76
2022-09-23T15:12:30.711Z,998.74
2022-09-23T15:18:17.758Z,998.68
2022-09-23T15:24:01.278Z,998.74
2022-09-23T15:29:44.810Z,998.79
2022-09-23T15:35:30.681Z,998.82
2022-09-23T15:41:14.411Z,998.77
2022-09-23T15:46:59.106Z,998.71
2022-09-23T15:52:42.658Z,998.66
2022-09-23T15:58:27.324Z,998.7
2022-09-23T16:04:10.956Z,998.74
2022-09-23T16:09:54.102Z,998.68
2022-09-23T16:15:37.784Z,998.6
2022-09-23T16:21:21.874Z,998.6
2022-09-23T16:27:07.288Z,998.58
2022-09-23T16:32:50.561Z,998.57
2022-09-23T16:38:33.717Z,998.54
2022-09-23T16:44:16.811Z,998.53
2022-09-23T16:50:00.233Z,998.54
2022-09-23T16:55:43.886Z,998.59
2022-09-23T17:01:28.225Z,998.56
2022-09-23T17:07:11.757Z,998.56
2022-09-23T17:12:55.013Z,998.54
2022-09-23T17:18:38.278Z,998.54
2022-09-23T17:24:21.667Z,998.56
2022-09-23T17:30:05.531Z,998.59
2022-09-23T17:35:48.682Z,998.64
2022-09-23T17:41:31.935Z,998.63
2022-09-23T17:47:15.109Z,998.6
2022-09-23T17:52:58.567Z,998.66
2022-09-23T17:58:41.853Z,998.56
2022-09-23T18:04:25.155Z,998.54
2022-09-23T18:10:09.130Z,998.49
2022-09-23T18:15:52.357Z,998.49
2022-09-23T18:21:36.573Z,998.49
2022-09-23T18:27:19.761Z,998.43
2022-09-23T18:33:03.968Z,998.5
2022-09-23T18:38:47.623Z,998.51
2022-09-23T18:44:30.796Z,998.48
2022-09-23T18:50:14.355Z,998.47
2022-09-23T18:55:57.875Z,998.42
2022-09-23T19:01:41.931Z,998.39
2022-09-23T19:07:25.458Z,998.39
2022-09-23T19:13:08.799Z,998.39
2022-09-23T19:18:53.181Z,998.41
2022-09-23T19:24:36.185Z,998.5
2022-09-23T19:30:20.483Z,998.5
2022-09-23T19:36:04.236Z,998.52
2022-09-23T19:41:47.805Z,998.49
2022-09-23T19:47:30.885Z,998.46
2022-09-23T19:53:14.696Z,998.42
2022-09-23T19:58:57.838Z,998.4
2022-09-23T20:04:40.704Z,998.28
2022-09-23T20:10:24.077Z,998.28
2022-09-23T20:16:07.517Z,998.29
2022-09-23T20:21:51.026Z,998.28
2022-09-23T20:27:34.314Z,998.34
2022-09-23T20:33:17.592Z,998.26
2022-09-23T20:39:01.442Z,998.21
2022-09-23T20:44:45.134Z,998.15
2022-09-23T20:50:28.689Z,998.05
2022-09-23T20:56:12.210Z,998.03
2022-09-23T21:01:55.435Z,998.04
2022-09-23T21:07:39.114Z,998.01
2022-09-23T21:13:22.550Z,998.02
2022-09-23T21:19:05.699Z,998.05
2022-09-23T21:25:26.148Z,998.12
2022-09-23T21:30:53.227Z,998.1
2022-09-23T21:36:37.606Z,998.02
2022-09-23T21:42:26.903Z,998.02
2022-09-23T21:48:10.227Z,998.01
2022-09-23T21:53:54.190Z,998.04
2022-09-23T21:59:37.410Z,998.14
2022-09-23T22:05:20.660Z,998.12
2022-09-23T22:11:04.335Z,998.11
2022-09-23T22:16:47.890Z,998.08
2022-09-23T22:22:31.147Z,998.08
2022-09-23T22:28:14.225Z,998.01
2022-09-23T22:33:57.422Z,998.04
2022-09-23T22:39:41.030Z,998.03
2022-09-23T22:45:24.374Z,997.96
2022-09-23T22:51:08.954Z,997.94
2022-09-23T22:56:52.250Z,997.97
2022-09-23T23:02:35.617Z,997.94
2022-09-23T23:08:19.202Z,997.99
2022-09-23T23:14:02.725Z,997.95
2022-09-23T23:19:46.370Z,997.93
2022-09-23T23:25:29.609Z,997.88
2022-09-23T23:31:13.753Z,997.88
2022-09-23T23:36:57.324Z,997.8
2022-09-23T23:42:40.827Z,997.81
2022-09-23T23:48:24.008Z,997.76
2022-09-23T23:54:07.527Z,997.69
2022-09-23T23:59:50.890Z,997.65
